createdAt,value
2024-02-19T00:01:40.133Z,101283.56
2024-02-19T00:04:09.914Z,101284.38
2024-02-19T00:06:37.880Z,101292.34
2024-02-19T00:09:06.185Z,101289.91
2024-02-19T00:11:34.058Z,101292.53
2024-02-19T00:14:02.168Z,101304.72
2024-02-19T00:16:29.909Z,101286.53
2024-02-19T00:18:57.930Z,101290.88
2024-02-19T00:21:27.546Z,101284.50
2024-02-19T00:23:55.289Z,101278.75
2024-02-19T00:26:23.032Z,101292.59
2024-02-19T00:28:51.409Z,101291.63
2024-02-19T00:31:19.371Z,101303.69
2024-02-19T00:33:48.696Z,101295.88
2024-02-19T00:36:16.650Z,101292.34
2024-02-19T00:38:45.889Z,101290.25
2024-02-19T00:41:13.676Z,101290.50
2024-02-19T00:43:41.488Z,101289.81
2024-02-19T00:46:09.300Z,101286.28
2024-02-19T00:48:37.074Z,101285.47
2024-02-19T00:51:06.032Z,101296.75
2024-02-19T00:53:33.787Z,101292.16
2024-02-19T00:56:03.064Z,101304.34
2024-02-19T00:58:31.256Z,101302.63
2024-02-19T01:00:59.648Z,101304.44
2024-02-19T01:03:28.025Z,101307.59
2024-02-19T01:05:55.952Z,101304.09
2024-02-19T01:08:23.874Z,101308.59
2024-02-19T01:10:52.514Z,101303.19
2024-02-19T01:13:21.639Z,101306.78
2024-02-19T01:15:49.547Z,101299.75
2024-02-19T01:18:18.044Z,101300.66
2024-02-19T01:20:45.774Z,101301.59
2024-02-19T01:23:13.487Z,101298.88
2024-02-19T01:25:41.434Z,101293.00
2024-02-19T01:28:09.706Z,101292.25
2024-02-19T01:30:38.853Z,101292.94
2024-02-19T01:33:07.608Z,101289.53
2024-02-19T01:35:36.596Z,101297.41
2024-02-19T01:38:05.551Z,101288.31
2024-02-19T01:40:33.388Z,101295.59
2024-02-19T01:43:03.222Z,101288.50
2024-02-19T01:45:31.043Z,101286.66
2024-02-19T01:48:02.017Z,101287.72
2024-02-19T01:50:32.613Z,101287.03
2024-02-19T01:53:03.515Z,101289.56
2024-02-19T01:55:32.162Z,101284.38
2024-02-19T01:58:00.048Z,101287.88
2024-02-19T02:00:29.425Z,101293.09
2024-02-19T02:02:57.715Z,101290.41
2024-02-19T02:05:26.717Z,101293.22
2024-02-19T02:07:55.518Z,101292.84
2024-02-19T02:10:23.369Z,101288.84
2024-02-19T02:12:51.156Z,101300.13
2024-02-19T02:15:18.988Z,101291.47
2024-02-19T02:17:46.903Z,101295.72
2024-02-19T02:20:15.105Z,101300.78
2024-02-19T02:22:44.585Z,101305.78
2024-02-19T02:25:12.622Z,101298.81
2024-02-19T02:27:42.285Z,101297.06
2024-02-19T02:30:10.688Z,101300.59
2024-02-19T02:32:38.984Z,101301.44
2024-02-19T02:35:07.342Z,101301.88
2024-02-19T02:37:35.106Z,101300.97
2024-02-19T02:40:03.710Z,101306.13
2024-02-19T02:42:31.610Z,101311.50
2024-02-19T02:45:00.733Z,101302.72
2024-02-19T02:47:28.745Z,101298.31
2024-02-19T02:49:56.535Z,101306.91
2024-02-19T02:52:24.360Z,101301.88
2024-02-19T02:54:52.658Z,101308.66
2024-02-19T02:57:22.042Z,101308.53
2024-02-19T02:59:49.753Z,101316.69
2024-02-19T03:02:19.110Z,101316.69
2024-02-19T03:04:47.031Z,101317.59
2024-02-19T03:07:14.904Z,101316.09
2024-02-19T03:09:42.737Z,101310.53
2024-02-19T03:12:10.533Z,101313.78
2024-02-19T03:14:38.354Z,101312.38
2024-02-19T03:17:08.439Z,101315.75
2024-02-19T03:19:37.782Z,101316.78
2024-02-19T03:22:06.434Z,101319.59
2024-02-19T03:24:34.147Z,101310.94
2024-02-19T03:27:03.315Z,101318.13
2024-02-19T03:29:31.123Z,101318.28
2024-02-19T03:31:59.151Z,101325.94
2024-02-19T03:34:26.944Z,101331.28
2024-02-19T03:36:56.229Z,101328.53
2024-02-19T03:39:24.221Z,101339.13
2024-02-19T03:41:51.936Z,101338.03
2024-02-19T03:44:19.705Z,101344.44
2024-02-19T03:46:47.717Z,101347.81
2024-02-19T03:49:15.674Z,101347.88
2024-02-19T03:51:43.438Z,101351.22
2024-02-19T03:54:14.498Z,101341.03
2024-02-19T03:56:42.450Z,101348.94
2024-02-19T03:59:10.597Z,101351.44
2024-02-19T04:01:38.972Z,101361.06
2024-02-19T04:04:07.077Z,101363.75
2024-02-19T04:06:34.951Z,101372.44
2024-02-19T04:09:02.957Z,101371.94
2024-02-19T04:11:32.356Z,101373.84
2024-02-19T04:13:59.339Z,101383.47
2024-02-19T04:16:27.571Z,101388.63
2024-02-19T04:18:55.483Z,101390.47
2024-02-19T04:21:23.672Z,101386.31
2024-02-19T04:23:51.358Z,101389.72
2024-02-19T04:26:19.088Z,101386.84
2024-02-19T04:28:48.141Z,101393.00
2024-02-19T04:31:15.911Z,101398.34
2024-02-19T04:33:45.111Z,101397.56
2024-02-19T04:36:13.384Z,101408.00
2024-02-19T04:38:41.986Z,101406.31
2024-02-19T04:41:09.784Z,101415.00
2024-02-19T04:43:37.471Z,101426.25
2024-02-19T04:46:07.244Z,101427.13
2024-02-19T04:48:36.375Z,101429.75
2024-02-19T04:51:04.317Z,101435.78
2024-02-19T04:53:32.508Z,101430.44
2024-02-19T04:56:00.815Z,101435.78
2024-02-19T04:58:28.711Z,101434.94
2024-02-19T05:00:56.619Z,101441.91
2024-02-19T05:03:25.792Z,101433.00
2024-02-19T05:05:53.584Z,101441.75
2024-02-19T05:08:21.291Z,101446.09
2024-02-19T05:10:49.059Z,101446.09
2024-02-19T05:13:16.822Z,101450.50
2024-02-19T05:15:45.436Z,101455.75
2024-02-19T05:18:13.409Z,101458.22
2024-02-19T05:20:42.576Z,101457.19
2024-02-19T05:23:10.449Z,101458.59
2024-02-19T05:25:38.113Z,101459.69
2024-02-19T05:28:06.235Z,101460.47
2024-02-19T05:30:34.178Z,101462.06
2024-02-19T05:33:02.051Z,101464.75
2024-02-19T05:35:29.926Z,101465.44
2024-02-19T05:37:59.164Z,101472.75
2024-02-19T05:40:27.056Z,101473.69
2024-02-19T05:42:55.075Z,101470.22
2024-02-19T05:45:23.468Z,101470.34
2024-02-19T05:47:51.419Z,101478.16
2024-02-19T05:50:19.793Z,101480.84
2024-02-19T05:52:47.496Z,101488.63
2024-02-19T05:55:16.958Z,101482.56
2024-02-19T05:57:45.092Z,101484.47
2024-02-19T06:00:15.339Z,101485.50
2024-02-19T06:02:43.577Z,101495.06
2024-02-19T06:05:12.612Z,101489.97
2024-02-19T06:07:41.144Z,101491.72
2024-02-19T06:10:09.818Z,101495.19
2024-02-19T06:12:38.972Z,101499.63
2024-02-19T06:15:07.487Z,101498.75
2024-02-19T06:17:35.477Z,101503.13
2024-02-19T06:20:03.389Z,101514.41
2024-02-19T06:22:31.220Z,101519.72
2024-02-19T06:24:59.001Z,101518.88
2024-02-19T06:27:26.805Z,101515.31
2024-02-19T06:29:56.000Z,101524.91
2024-02-19T06:32:23.745Z,101535.41
2024-02-19T06:34:51.631Z,101529.38
2024-02-19T06:37:20.032Z,101541.53
2024-02-19T06:39:47.887Z,101545.94
2024-02-19T06:42:16.079Z,101549.41
2024-02-19T06:44:43.746Z,101557.22
2024-02-19T06:47:14.317Z,101558.09
2024-02-19T06:49:42.780Z,101551.16
2024-02-19T06:52:10.766Z,101558.09
2024-02-19T06:54:38.577Z,101558.84
2024-02-19T06:57:06.993Z,101558.72
2024-02-19T06:59:34.772Z,101559.59
2024-02-19T07:02:05.812Z,101550.88
2024-02-19T07:04:40.936Z,101548.72
2024-02-19T07:07:11.091Z,101560.91
2024-02-19T07:09:39.566Z,101566.94
2024-02-19T07:12:07.713Z,101573.00
2024-02-19T07:14:35.644Z,101568.56
2024-02-19T07:17:03.672Z,101577.31
2024-02-19T07:19:31.737Z,101596.41
2024-02-19T07:22:01.469Z,101592.94
2024-02-19T07:24:30.530Z,101603.19
2024-02-19T07:26:59.222Z,101612.59
2024-02-19T07:29:27.749Z,101608.34
2024-02-19T07:31:55.621Z,101610.09
2024-02-19T07:34:23.555Z,101616.09
2024-02-19T07:36:51.512Z,101625.56
2024-02-19T07:39:21.973Z,101627.38
2024-02-19T07:41:49.676Z,101625.50
2024-02-19T07:44:17.529Z,101637.56
2024-02-19T07:46:45.805Z,101641.09
2024-02-19T07:49:13.598Z,101641.94
2024-02-19T07:51:41.915Z,101650.66
2024-02-19T07:54:09.709Z,101652.31
2024-02-19T07:56:38.811Z,101641.09
2024-02-19T07:59:06.818Z,101650.47
2024-02-19T08:01:34.775Z,101650.59
2024-02-19T08:04:02.923Z,101645.34
2024-02-19T08:06:30.874Z,101641.00
2024-02-19T08:08:59.757Z,101638.38
2024-02-19T08:11:28.949Z,101638.28
2024-02-19T08:13:58.187Z,101636.44
2024-02-19T08:16:28.680Z,101627.72
2024-02-19T08:18:57.007Z,101625.84
2024-02-19T08:21:25.577Z,101629.94
2024-02-19T08:23:53.832Z,101632.50
2024-02-19T08:26:22.222Z,101637.72
2024-02-19T08:28:50.287Z,101632.38
2024-02-19T08:31:19.485Z,101632.22
2024-02-19T08:33:47.461Z,101631.81
2024-02-19T08:36:15.552Z,101630.19
2024-02-19T08:38:45.932Z,101633.59
2024-02-19T08:41:13.804Z,101632.72
2024-02-19T08:43:41.857Z,101619.75
2024-02-19T08:46:09.612Z,101623.22
2024-02-19T08:48:39.157Z,101620.44
2024-02-19T08:51:07.046Z,101622.72
2024-02-19T08:53:34.730Z,101624.50
2024-02-19T08:56:02.712Z,101611.97
2024-02-19T08:58:32.244Z,101624.31
2024-02-19T09:01:00.743Z,101626.03
2024-02-19T09:03:29.174Z,101635.59
2024-02-19T09:05:58.931Z,101633.13
2024-02-19T09:08:27.573Z,101644.41
2024-02-19T09:10:55.918Z,101631.13
2024-02-19T09:13:23.857Z,101638.25
2024-02-19T09:15:51.657Z,101630.56
2024-02-19T09:18:20.301Z,101636.44
2024-02-19T09:20:48.366Z,101634.56
2024-02-19T09:23:18.062Z,101634.50
2024-02-19T09:25:45.811Z,101624.88
2024-02-19T09:28:13.943Z,101630.00
2024-02-19T09:30:41.757Z,101636.94
2024-02-19T09:33:09.552Z,101630.75
2024-02-19T09:35:38.394Z,101639.38
2024-02-19T09:38:06.638Z,101638.44
2024-02-19T09:40:38.781Z,101634.09
2024-02-19T09:43:07.795Z,101633.03
2024-02-19T09:45:37.383Z,101641.47
2024-02-19T09:48:07.783Z,101639.72
2024-02-19T09:50:36.766Z,101637.91
2024-02-19T09:53:11.938Z,101635.03
2024-02-19T09:55:41.227Z,101632.16
2024-02-19T09:58:09.257Z,101631.88
2024-02-19T10:00:37.642Z,101631.19
2024-02-19T10:03:07.319Z,101627.59
2024-02-19T10:05:35.245Z,101627.28
2024-02-19T10:08:06.205Z,101621.00
2024-02-19T10:10:38.922Z,101622.31
2024-02-19T10:13:10.650Z,101607.66
2024-02-19T10:15:38.882Z,101602.38
2024-02-19T10:18:14.467Z,101599.47
2024-02-19T10:20:51.785Z,101588.50
2024-02-19T10:23:23.851Z,101589.84
2024-02-19T10:25:52.606Z,101586.59
2024-02-19T10:28:23.362Z,101587.69
2024-02-19T10:30:51.306Z,101588.91
2024-02-19T10:33:20.044Z,101583.91
2024-02-19T10:35:49.662Z,101582.19
2024-02-19T10:38:17.612Z,101576.34
2024-02-19T10:40:46.026Z,101587.00
2024-02-19T10:43:15.238Z,101586.59
2024-02-19T10:45:44.712Z,101584.09
2024-02-19T10:48:14.363Z,101579.47
2024-02-19T10:50:42.899Z,101576.16
2024-02-19T10:53:10.682Z,101563.88
2024-02-19T10:55:49.662Z,101556.69
2024-02-19T10:58:28.123Z,101535.75
2024-02-19T11:00:59.630Z,101535.00
2024-02-19T11:03:27.488Z,101537.44
2024-02-19T11:06:00.922Z,101545.75
2024-02-19T11:08:35.703Z,101524.53
2024-02-19T11:11:06.504Z,101524.44
2024-02-19T11:13:38.263Z,101516.84
2024-02-19T11:16:18.380Z,101513.28
2024-02-19T11:18:46.559Z,101493.66
2024-02-19T11:21:14.543Z,101492.19
2024-02-19T11:23:42.639Z,101488.91
2024-02-19T11:26:13.496Z,101479.66
2024-02-19T11:28:41.797Z,101463.72
2024-02-19T11:31:15.016Z,101468.00
2024-02-19T11:33:45.499Z,101461.22
2024-02-19T11:36:13.310Z,101469.03
2024-02-19T11:38:41.071Z,101475.63
2024-02-19T11:41:11.806Z,101477.81
2024-02-19T11:43:40.782Z,101470.25
2024-02-19T11:46:09.528Z,101479.69
2024-02-19T11:48:38.062Z,101479.91
2024-02-19T11:51:07.576Z,101474.81
2024-02-19T11:53:37.071Z,101475.97
2024-02-19T11:56:05.267Z,101485.91
2024-02-19T11:58:33.475Z,101480.88
2024-02-19T12:01:02.780Z,101478.16
2024-02-19T12:03:30.599Z,101477.28
2024-02-19T12:05:59.355Z,101461.72
2024-02-19T12:08:30.323Z,101458.97
2024-02-19T12:10:58.006Z,101462.09
2024-02-19T12:13:27.053Z,101457.22
2024-02-19T12:15:55.687Z,101452.97
2024-02-19T12:18:23.938Z,101434.84
2024-02-19T12:20:52.589Z,101444.56
2024-02-19T12:23:20.419Z,101447.75
2024-02-19T12:25:49.871Z,101455.06
2024-02-19T12:28:17.878Z,101473.94
2024-02-19T12:30:45.691Z,101473.41
2024-02-19T12:33:13.739Z,101482.88
2024-02-19T12:35:41.979Z,101478.16
2024-02-19T12:38:10.030Z,101484.72
2024-02-19T12:40:37.816Z,101475.38
2024-02-19T12:43:08.013Z,101492.50
2024-02-19T12:45:35.799Z,101475.78
2024-02-19T12:48:04.193Z,101478.84
2024-02-19T12:50:32.593Z,101482.44
2024-02-19T12:53:01.831Z,101483.47
2024-02-19T12:55:29.889Z,101487.91
2024-02-19T12:57:58.004Z,101481.16
2024-02-19T13:00:27.643Z,101477.69
2024-02-19T13:02:56.084Z,101471.72
2024-02-19T13:05:23.863Z,101469.00
2024-02-19T13:07:51.848Z,101460.09
2024-02-19T13:10:19.791Z,101465.50
2024-02-19T13:12:47.662Z,101464.63
2024-02-19T13:15:16.116Z,101459.34
2024-02-19T13:17:46.808Z,101449.38
2024-02-19T13:20:16.153Z,101449.59
2024-02-19T13:22:44.558Z,101450.44
2024-02-19T13:25:12.423Z,101457.47
2024-02-19T13:27:40.537Z,101449.63
2024-02-19T13:30:10.633Z,101447.13
2024-02-19T13:32:38.929Z,101448.81
2024-02-19T13:35:12.261Z,101439.00
2024-02-19T13:37:41.207Z,101435.63
2024-02-19T13:40:12.145Z,101437.44
2024-02-19T13:42:40.584Z,101433.25
2024-02-19T13:45:10.486Z,101437.91
2024-02-19T13:47:40.156Z,101426.97
2024-02-19T13:50:12.274Z,101421.22
2024-02-19T13:52:40.508Z,101423.72
2024-02-19T13:55:09.124Z,101432.00
2024-02-19T13:57:36.984Z,101434.75
2024-02-19T14:00:06.465Z,101420.25
2024-02-19T14:02:34.790Z,101420.97
2024-02-19T14:05:03.128Z,101415.56
2024-02-19T14:07:32.644Z,101413.44
2024-02-19T14:10:01.810Z,101424.44
2024-02-19T14:12:29.928Z,101416.63
2024-02-19T14:14:57.744Z,101414.91
2024-02-19T14:17:25.684Z,101414.56
2024-02-19T14:19:54.383Z,101405.00
2024-02-19T14:22:23.307Z,101405.84
2024-02-19T14:24:53.158Z,101407.81
2024-02-19T14:27:21.193Z,101402.59
2024-02-19T14:29:49.653Z,101398.28
2024-02-19T14:32:17.916Z,101406.13
2024-02-19T14:34:45.773Z,101399.28
2024-02-19T14:37:14.503Z,101400.34
2024-02-19T14:39:43.785Z,101390.13
2024-02-19T14:42:13.567Z,101383.44
2024-02-19T14:44:42.841Z,101383.66
2024-02-19T14:47:12.082Z,101386.50
2024-02-19T14:49:40.740Z,101384.34
2024-02-19T14:52:08.954Z,101387.41
2024-02-19T14:54:36.857Z,101385.47
2024-02-19T14:57:05.624Z,101380.53
2024-02-19T14:59:36.791Z,101379.72
2024-02-19T15:02:05.017Z,101383.34
2024-02-19T15:04:33.384Z,101381.47
2024-02-19T15:07:01.933Z,101376.31
2024-02-19T15:09:30.363Z,101379.91
2024-02-19T15:11:58.263Z,101371.22
2024-02-19T15:14:26.017Z,101370.44
2024-02-19T15:16:55.318Z,101369.59
2024-02-19T15:19:23.204Z,101372.34
2024-02-19T15:21:51.046Z,101371.59
2024-02-19T15:24:18.894Z,101379.41
2024-02-19T15:26:46.864Z,101390.66
2024-02-19T15:29:18.109Z,101375.16
2024-02-19T15:31:45.884Z,101373.44
2024-02-19T15:34:15.424Z,101370.66
2024-02-19T15:36:43.474Z,101375.41
2024-02-19T15:39:13.102Z,101383.41
2024-02-19T15:41:41.000Z,101381.78
2024-02-19T15:44:09.468Z,101375.84
2024-02-19T15:46:37.698Z,101371.28
2024-02-19T15:49:05.939Z,101375.53
2024-02-19T15:51:36.369Z,101367.34
2024-02-19T15:54:04.497Z,101371.81
2024-02-19T15:56:32.562Z,101366.34
2024-02-19T15:59:00.368Z,101363.75
2024-02-19T16:01:28.606Z,101362.97
2024-02-19T16:03:56.734Z,101370.38
2024-02-19T16:06:28.945Z,101372.44
2024-02-19T16:08:58.954Z,101372.50
2024-02-19T16:11:27.069Z,101367.56
2024-02-19T16:13:57.283Z,101367.59
2024-02-19T16:16:25.118Z,101358.06
2024-02-19T16:18:53.152Z,101364.22
2024-02-19T16:21:21.489Z,101360.09
2024-02-19T16:23:49.710Z,101351.47
2024-02-19T16:26:18.940Z,101356.78
2024-02-19T16:28:47.753Z,101352.44
2024-02-19T16:31:15.845Z,101348.16
2024-02-19T16:33:44.036Z,101347.41
2024-02-19T16:36:12.104Z,101345.91
2024-02-19T16:38:41.931Z,101347.00
2024-02-19T16:41:10.164Z,101355.97
2024-02-19T16:43:39.992Z,101349.31
2024-02-19T16:46:08.148Z,101350.19
2024-02-19T16:48:40.268Z,101351.94
2024-02-19T16:51:08.838Z,101357.16
2024-02-19T16:53:37.643Z,101348.47
2024-02-19T16:56:06.184Z,101356.09
2024-02-19T16:58:35.992Z,101354.25
2024-02-19T17:01:06.872Z,101354.25
2024-02-19T17:03:35.286Z,101349.91
2024-02-19T17:06:03.418Z,101352.63
2024-02-19T17:08:31.792Z,101345.56
2024-02-19T17:10:59.904Z,101353.44
2024-02-19T17:13:28.058Z,101345.50
2024-02-19T17:15:55.946Z,101338.22
2024-02-19T17:18:25.629Z,101337.13
2024-02-19T17:20:53.516Z,101343.34
2024-02-19T17:23:21.491Z,101344.19
2024-02-19T17:25:49.266Z,101345.91
2024-02-19T17:28:19.811Z,101356.41
2024-02-19T17:30:47.893Z,101353.75
2024-02-19T17:33:16.207Z,101350.34
2024-02-19T17:35:46.101Z,101349.50
2024-02-19T17:38:15.595Z,101358.44
2024-02-19T17:40:45.156Z,101356.63
2024-02-19T17:43:13.652Z,101354.00
2024-02-19T17:45:41.642Z,101352.97
2024-02-19T17:48:14.009Z,101353.53
2024-02-19T17:50:42.845Z,101349.91
2024-02-19T17:53:12.472Z,101345.03
2024-02-19T17:55:41.014Z,101344.94
2024-02-19T17:58:09.002Z,101358.19
2024-02-19T18:00:36.933Z,101347.06
2024-02-19T18:03:05.098Z,101357.38
2024-02-19T18:05:33.117Z,101355.63
2024-02-19T18:08:00.846Z,101351.56
2024-02-19T18:10:30.155Z,101361.06
2024-02-19T18:12:58.256Z,101360.28
2024-02-19T18:15:27.585Z,101365.50
2024-02-19T18:17:58.131Z,101362.06
2024-02-19T18:20:26.700Z,101364.84
2024-02-19T18:22:57.046Z,101366.69
2024-02-19T18:25:25.492Z,101374.38
2024-02-19T18:27:56.815Z,101371.09
2024-02-19T18:30:25.356Z,101369.44
2024-02-19T18:32:53.360Z,101370.31
2024-02-19T18:35:21.692Z,101366.94
2024-02-19T18:37:50.242Z,101373.88
2024-02-19T18:40:18.461Z,101371.28
2024-02-19T18:42:46.305Z,101372.22
2024-02-19T18:45:15.419Z,101368.69
2024-02-19T18:47:45.026Z,101358.28
2024-02-19T18:50:13.377Z,101362.59
2024-02-19T18:52:41.179Z,101353.19
2024-02-19T18:55:10.016Z,101351.53
2024-02-19T18:57:38.730Z,101351.31
2024-02-19T19:00:10.751Z,101348.72
2024-02-19T19:02:41.458Z,101336.63
2024-02-19T19:05:10.431Z,101336.69
2024-02-19T19:07:38.515Z,101330.66
2024-02-19T19:10:06.994Z,101336.81
2024-02-19T19:12:35.152Z,101331.97
2024-02-19T19:15:04.949Z,101330.47
2024-02-19T19:17:33.064Z,101331.66
2024-02-19T19:20:06.484Z,101343.91
2024-02-19T19:22:34.629Z,101344.97
2024-02-19T19:25:03.241Z,101349.47
2024-02-19T19:27:31.417Z,101362.56
2024-02-19T19:30:00.908Z,101356.47
2024-02-19T19:32:30.264Z,101353.78
2024-02-19T19:34:58.366Z,101346.94
2024-02-19T19:37:28.789Z,101350.50
2024-02-19T19:39:56.729Z,101345.31
2024-02-19T19:42:27.157Z,101347.81
2024-02-19T19:44:56.714Z,101350.31
2024-02-19T19:47:24.881Z,101348.56
2024-02-19T19:49:53.009Z,101352.16
2024-02-19T19:52:21.044Z,101353.94
2024-02-19T19:54:50.716Z,101358.28
2024-02-19T19:57:18.538Z,101345.38
2024-02-19T19:59:49.102Z,101346.28
2024-02-19T20:02:17.506Z,101354.13
2024-02-19T20:04:48.798Z,101351.47
2024-02-19T20:07:16.734Z,101352.31
2024-02-19T20:09:47.194Z,101351.47
2024-02-19T20:12:18.794Z,101353.25
2024-02-19T20:14:46.965Z,101360.97
2024-02-19T20:17:20.582Z,101356.66
2024-02-19T20:19:50.423Z,101356.63
2024-02-19T20:22:18.425Z,101359.16
2024-02-19T20:24:46.927Z,101363.38
2024-02-19T20:27:16.178Z,101366.53
2024-02-19T20:29:44.580Z,101373.59
2024-02-19T20:32:12.623Z,101366.78
2024-02-19T20:34:41.342Z,101361.59
2024-02-19T20:37:11.542Z,101360.78
2024-02-19T20:39:39.459Z,101360.78
2024-02-19T20:42:07.334Z,101363.47
2024-02-19T20:44:36.757Z,101357.47
2024-02-19T20:47:05.261Z,101361.84
2024-02-19T20:49:33.264Z,101360.13
2024-02-19T20:52:02.630Z,101363.56
2024-02-19T20:54:31.854Z,101362.72
2024-02-19T20:56:59.786Z,101361.03
2024-02-19T20:59:28.462Z,101376.53
2024-02-19T21:01:58.573Z,101363.63
2024-02-19T21:04:26.851Z,101370.56
2024-02-19T21:06:54.868Z,101368.75
2024-02-19T21:09:23.257Z,101371.28
2024-02-19T21:11:51.223Z,101372.94
2024-02-19T21:14:19.002Z,101368.59
2024-02-19T21:16:47.234Z,101366.69
2024-02-19T21:19:19.703Z,101365.81
2024-02-19T21:21:47.863Z,101371.00
2024-02-19T21:24:16.043Z,101371.00
2024-02-19T21:26:44.039Z,101378.81
2024-02-19T21:29:11.801Z,101378.81
2024-02-19T21:31:40.341Z,101378.03
2024-02-19T21:34:11.532Z,101385.03
2024-02-19T21:36:44.903Z,101383.22
2024-02-19T21:39:15.547Z,101383.19
2024-02-19T21:41:44.924Z,101387.47
2024-02-19T21:44:14.598Z,101384.03
2024-02-19T21:46:44.268Z,101387.47
2024-02-19T21:49:12.205Z,101383.97
2024-02-19T21:51:42.744Z,101384.66
2024-02-19T21:54:10.804Z,101393.31
2024-02-19T21:56:38.761Z,101391.69
2024-02-19T21:59:06.830Z,101394.06
2024-02-19T22:01:35.232Z,101387.28
2024-02-19T22:04:03.447Z,101390.75
2024-02-19T22:06:31.395Z,101394.38
2024-02-19T22:09:02.354Z,101396.19
2024-02-19T22:11:30.296Z,101388.50
2024-02-19T22:13:58.173Z,101388.50
2024-02-19T22:16:26.008Z,101389.53
2024-02-19T22:18:54.409Z,101389.53
2024-02-19T22:21:22.324Z,101385.28
2024-02-19T22:23:50.191Z,101394.00
2024-02-19T22:26:19.284Z,101387.09
2024-02-19T22:28:47.080Z,101381.63
2024-02-19T22:31:14.807Z,101374.84
2024-02-19T22:33:43.440Z,101372.31
2024-02-19T22:36:12.290Z,101367.09
2024-02-19T22:38:41.218Z,101375.09
2024-02-19T22:41:10.124Z,101376.16
2024-02-19T22:43:41.032Z,101380.56
2024-02-19T22:46:09.645Z,101372.53
2024-02-19T22:48:38.078Z,101383.16
2024-02-19T22:51:06.433Z,101395.50
2024-02-19T22:53:34.664Z,101393.63
2024-02-19T22:56:03.221Z,101400.69
2024-02-19T22:58:34.849Z,101401.75
2024-02-19T23:01:06.371Z,101399.25
2024-02-19T23:03:36.003Z,101403.66
2024-02-19T23:06:04.776Z,101398.75
2024-02-19T23:08:33.080Z,101396.16
2024-02-19T23:11:01.741Z,101399.47
2024-02-19T23:13:30.312Z,101392.84
2024-02-19T23:15:58.808Z,101393.16
2024-02-19T23:18:28.565Z,101403.84
2024-02-19T23:20:56.756Z,101400.75
2024-02-19T23:23:25.716Z,101401.13
2024-02-19T23:25:55.411Z,101398.75
2024-02-19T23:28:24.017Z,101406.41
2024-02-19T23:30:53.569Z,101409.06
2024-02-19T23:33:21.792Z,101402.13
2024-02-19T23:35:51.488Z,101407.34
2024-02-19T23:38:20.855Z,101416.72
2024-02-19T23:40:48.823Z,101413.97
2024-02-19T23:43:16.990Z,101413.09
2024-02-19T23:45:44.890Z,101421.34
2024-02-19T23:48:12.800Z,101433.66
2024-02-19T23:50:41.487Z,101424.38
2024-02-19T23:53:10.945Z,101435.59
2024-02-19T23:55:39.014Z,101437.56
2024-02-19T23:58:06.825Z,101440.78
